Time;durP1;ratioP1;P1;durP2;ratioP2;P2;SDS_P1;SDS_P2;PMS_P1;PMS_P2;Temp;Humidity;BMP_temperature;BMP_pressure;BME280_temperature;BME280_humidity;BME280_pressure;Samples;Min_cycle;Max_cycle;Signal;HPM_P1;HPM_P2
2023/04/26 00:02:11;;;;;;;4.55;2.55;;;11.60;34.40;;;;;;5093514;28;20184;-50
2023/04/26 00:04:38;;;;;;;5.87;2.87;;;11.60;34.30;;;;;;5093693;28;20172;-51
2023/04/26 00:07:04;;;;;;;4.88;2.95;;;11.60;34.20;;;;;;5093980;28;20410;-49
2023/04/26 00:09:30;;;;;;;4.40;2.70;;;11.60;34.30;;;;;;5093574;28;20281;-49
2023/04/26 00:11:56;;;;;;;4.18;2.95;;;11.60;34.20;;;;;;5093325;28;20483;-51
2023/04/26 00:14:22;;;;;;;6.67;3.37;;;11.60;34.30;;;;;;5093641;28;20168;-49
2023/04/26 00:16:47;;;;;;;5.03;2.90;;;11.60;34.30;;;;;;5093792;28;20428;-50
2023/04/26 00:19:14;;;;;;;4.27;2.77;;;11.60;34.10;;;;;;5093644;28;20667;-51
2023/04/26 00:21:40;;;;;;;4.47;3.30;;;11.60;34.30;;;;;;5093227;28;20474;-48
2023/04/26 00:24:07;;;;;;;6.03;3.10;;;11.60;34.20;;;;;;5093291;28;20172;-50
2023/04/26 00:26:33;;;;;;;6.57;2.50;;;11.60;34.20;;;;;;5093565;28;20493;-50
2023/04/26 00:29:00;;;;;;;6.65;2.70;;;11.60;34.20;;;;;;5093248;28;20282;-50
2023/04/26 00:31:25;;;;;;;3.17;2.70;;;11.50;34.20;;;;;;5092357;28;20204;-50
2023/04/26 00:33:51;;;;;;;6.37;3.03;;;11.60;34.30;;;;;;5092669;28;20172;-48
2023/04/26 00:36:18;;;;;;;7.33;3.53;;;11.50;34.30;;;;;;5093481;28;20175;-50
2023/04/26 00:38:45;;;;;;;4.90;3.15;;;11.50;34.20;;;;;;5092988;28;20174;-50
2023/04/26 00:41:12;;;;;;;4.72;3.42;;;11.50;34.40;;;;;;5093104;28;20180;-50
2023/04/26 00:43:38;;;;;;;5.20;3.70;;;11.50;34.40;;;;;;5093100;28;20261;-50
2023/04/26 00:46:05;;;;;;;4.82;3.28;;;11.40;34.40;;;;;;5092902;28;20648;-50
2023/04/26 00:48:31;;;;;;;6.18;3.15;;;11.40;34.50;;;;;;5093085;28;20310;-50
2023/04/26 00:50:57;;;;;;;4.85;3.30;;;11.40;34.60;;;;;;5093024;28;20168;-50
2023/04/26 00:53:22;;;;;;;4.63;3.43;;;11.40;34.50;;;;;;5092939;28;20279;-50
2023/04/26 00:55:50;;;;;;;4.30;3.40;;;11.40;34.70;;;;;;5092810;28;20636;-50
2023/04/26 00:58:17;;;;;;;7.00;3.20;;;11.30;34.60;;;;;;5092976;28;20198;-48
2023/04/26 01:00:43;;;;;;;3.20;2.88;;;11.30;34.90;;;;;;5092755;28;20199;-50
2023/04/26 01:03:09;;;;;;;5.50;3.23;;;11.20;35.00;;;;;;5092420;28;20571;-50
2023/04/26 01:05:36;;;;;;;3.70;3.30;;;11.10;35.10;;;;;;5092794;28;20402;-50
2023/04/26 01:08:03;;;;;;;4.97;3.58;;;11.00;35.30;;;;;;5092659;28;20179;-48
2023/04/26 01:10:31;;;;;;;9.23;3.92;;;11.00;35.50;;;;;;5092408;28;20275;-50
2023/04/26 01:12:58;;;;;;;6.15;3.05;;;11.00;35.50;;;;;;5092427;28;20211;-49
2023/04/26 01:15:27;;;;;;;3.58;2.40;;;10.90;35.60;;;;;;5092443;28;20179;-50
2023/04/26 01:17:53;;;;;;;4.50;2.70;;;10.90;35.50;;;;;;5092483;28;20270;-50
2023/04/26 01:20:19;;;;;;;3.67;3.17;;;10.90;35.60;;;;;;5092451;28;20203;-50
2023/04/26 01:22:45;;;;;;;4.68;3.42;;;10.80;35.70;;;;;;5092314;28;20179;-48
2023/04/26 01:25:11;;;;;;;3.70;3.00;;;10.70;35.60;;;;;;5092327;28;20176;-50
2023/04/26 01:27:37;;;;;;;6.70;4.00;;;10.70;36.00;;;;;;5092174;28;20701;-50
2023/04/26 01:30:04;;;;;;;4.50;2.80;;;10.70;36.10;;;;;;5092111;28;20256;-49
2023/04/26 01:32:30;;;;;;;5.53;3.67;;;10.60;36.20;;;;;;5092011;28;20210;-50
2023/04/26 01:34:55;;;;;;;4.80;2.97;;;10.60;36.20;;;;;;5092524;28;20578;-50
2023/04/26 01:37:21;;;;;;;13.37;4.90;;;10.50;36.60;;;;;;5092147;28;20402;-50
2023/04/26 01:39:47;;;;;;;6.80;2.83;;;10.40;36.80;;;;;;5092067;28;20433;-50
2023/04/26 01:42:13;;;;;;;6.77;2.97;;;10.40;37.00;;;;;;5091899;28;20171;-50
2023/04/26 01:44:38;;;;;;;5.67;3.17;;;10.40;36.70;;;;;;5091873;28;20277;-50
2023/04/26 01:47:05;;;;;;;6.10;3.20;;;10.40;36.90;;;;;;5092154;28;20172;-50
2023/04/26 01:49:31;;;;;;;8.60;3.08;;;10.40;36.80;;;;;;5092186;28;20609;-50
2023/04/26 01:51:58;;;;;;;4.82;2.42;;;10.30;36.70;;;;;;5091732;28;20233;-50
2023/04/26 01:54:23;;;;;;;5.13;3.17;;;10.30;36.70;;;;;;5092049;28;20255;-50
2023/04/26 01:56:49;;;;;;;6.60;3.70;;;10.30;36.70;;;;;;5091833;28;20270;-50
2023/04/26 01:59:15;;;;;;;6.77;3.00;;;10.30;36.70;;;;;;5091946;28;20434;-50
2023/04/26 02:01:42;;;;;;;7.80;3.30;;;10.30;36.80;;;;;;5092074;28;20402;-50
2023/04/26 02:04:08;;;;;;;5.70;3.03;;;10.30;36.70;;;;;;5091845;28;20540;-50
2023/04/26 02:06:33;;;;;;;4.77;2.80;;;10.30;36.80;;;;;;5091811;28;20172;-50
2023/04/26 02:08:59;;;;;;;9.30;4.10;;;10.30;36.80;;;;;;5092118;28;20425;-50
2023/04/26 02:11:25;;;;;;;8.03;3.30;;;10.30;36.90;;;;;;5091684;28;20223;-50
2023/04/26 02:13:52;;;;;;;4.93;3.25;;;10.30;36.80;;;;;;5091573;28;20176;-50
2023/04/26 02:16:18;;;;;;;5.45;2.65;;;10.30;36.70;;;;;;5091750;28;20172;-50
2023/04/26 02:18:44;;;;;;;5.40;3.20;;;10.30;36.80;;;;;;5092050;28;20168;-50
2023/04/26 02:21:12;;;;;;;5.20;3.40;;;10.30;36.80;;;;;;5092062;28;20179;-50
2023/04/26 02:23:38;;;;;;;11.45;3.10;;;10.40;36.70;;;;;;5091516;28;20409;-50
2023/04/26 02:26:04;;;;;;;5.93;3.57;;;10.40;36.70;;;;;;5091919;28;20179;-50
2023/04/26 02:28:30;;;;;;;4.40;3.27;;;10.40;36.60;;;;;;5091963;28;20172;-50
2023/04/26 02:30:57;;;;;;;4.93;3.35;;;10.40;36.70;;;;;;5091579;28;20422;-50
2023/04/26 02:33:23;;;;;;;4.45;3.08;;;10.40;36.70;;;;;;5091530;28;20207;-50
2023/04/26 02:35:48;;;;;;;5.07;3.50;;;10.40;36.60;;;;;;5091672;28;20505;-50
2023/04/26 02:38:14;;;;;;;7.20;3.47;;;10.40;36.60;;;;;;5091664;28;20196;-50
2023/04/26 02:40:40;;;;;;;5.57;3.30;;;10.30;36.70;;;;;;5091393;28;20222;-50
2023/04/26 02:43:06;;;;;;;4.37;3.97;;;10.30;36.80;;;;;;5091301;28;20198;-50
2023/04/26 02:45:31;;;;;;;4.63;3.30;;;10.30;37.00;;;;;;5091826;28;20168;-50
2023/04/26 02:47:57;;;;;;;9.33;3.13;;;10.30;36.80;;;;;;5091816;28;20221;-50
2023/04/26 02:50:23;;;;;;;5.53;3.47;;;10.30;36.80;;;;;;5091389;28;20264;-50
2023/04/26 02:52:49;;;;;;;8.00;3.87;;;10.30;37.00;;;;;;5091467;28;20200;-50
2023/04/26 02:55:15;;;;;;;8.73;5.53;;;10.30;37.00;;;;;;5092093;28;20168;-50
2023/04/26 02:57:40;;;;;;;6.60;3.43;;;10.30;36.90;;;;;;5095252;28;20402;-50
2023/04/26 03:00:07;;;;;;;8.20;3.97;;;10.30;36.90;;;;;;5095239;28;20471;-50
2023/04/26 03:02:33;;;;;;;5.40;4.10;;;10.30;36.80;;;;;;5094727;28;20172;-50
2023/04/26 03:04:58;;;;;;;5.20;3.13;;;10.30;37.20;;;;;;5094978;28;20241;-50
2023/04/26 03:07:24;;;;;;;9.23;4.70;;;10.20;37.00;;;;;;5094872;28;20183;-50
2023/04/26 03:09:50;;;;;;;8.13;3.97;;;10.20;37.10;;;;;;5094592;28;20196;-50
2023/04/26 03:12:16;;;;;;;4.80;3.60;;;10.20;37.20;;;;;;5094487;28;20986;-50
2023/04/26 03:14:41;;;;;;;6.20;3.50;;;10.10;37.00;;;;;;5095079;28;20171;-50
2023/04/26 03:17:07;;;;;;;5.57;4.13;;;10.10;37.10;;;;;;5095082;28;20595;-50
2023/04/26 03:19:33;;;;;;;4.80;3.77;;;10.10;37.30;;;;;;5094604;28;20188;-50
2023/04/26 03:21:58;;;;;;;9.10;4.50;;;10.10;37.20;;;;;;5094634;28;20193;-50
2023/04/26 03:24:25;;;;;;;6.57;3.90;;;10.10;37.20;;;;;;5094698;28;20259;-50
2023/04/26 03:26:51;;;;;;;7.93;3.22;;;10.10;37.10;;;;;;5094739;28;20179;-50
2023/04/26 03:29:17;;;;;;;6.43;4.13;;;10.10;37.10;;;;;;5094358;28;20200;-48
2023/04/26 03:31:43;;;;;;;10.80;3.87;;;10.10;37.20;;;;;;5094051;28;20362;-50
2023/04/26 03:34:08;;;;;;;8.00;3.78;;;10.00;37.40;;;;;;5094275;28;20168;-50
2023/04/26 03:36:34;;;;;;;7.40;3.40;;;10.00;37.30;;;;;;5094327;28;20175;-50
2023/04/26 03:39:00;;;;;;;7.10;3.63;;;9.90;37.50;;;;;;5094082;28;20460;-50
2023/04/26 03:41:26;;;;;;;4.60;3.33;;;9.90;37.40;;;;;;5094424;28;20172;-50
2023/04/26 03:43:51;;;;;;;6.77;2.80;;;9.90;37.50;;;;;;5094326;28;20199;-50
2023/04/26 03:46:17;;;;;;;9.90;4.57;;;9.90;37.60;;;;;;5094381;28;20510;-50
2023/04/26 03:48:43;;;;;;;9.53;4.93;;;9.80;37.60;;;;;;5093917;28;20191;-50
2023/04/26 03:51:09;;;;;;;4.90;4.33;;;9.80;38.00;;;;;;5093924;28;20178;-50
2023/04/26 03:53:35;;;;;;;10.00;4.57;;;9.70;37.60;;;;;;5093599;28;20445;-50
2023/04/26 03:56:00;;;;;;;5.70;4.13;;;9.70;37.80;;;;;;5093958;28;20259;-50
2023/04/26 03:58:26;;;;;;;6.03;4.07;;;9.70;37.70;;;;;;5094067;28;20412;-50
2023/04/26 04:00:56;;;;;;;3.63;2.90;;;9.70;37.70;;;;;;5093978;28;20612;-50
2023/04/26 04:03:21;;;;;;;4.75;3.80;;;9.70;37.70;;;;;;5093629;28;20179;-50
2023/04/26 04:05:47;;;;;;;5.30;3.53;;;9.70;37.60;;;;;;5093657;28;20666;-50
2023/04/26 04:08:13;;;;;;;8.60;3.83;;;9.70;37.60;;;;;;5093584;28;20168;-50
2023/04/26 04:10:38;;;;;;;10.43;4.00;;;9.60;37.50;;;;;;5093566;28;20196;-50
2023/04/26 04:13:04;;;;;;;7.33;3.77;;;9.70;37.70;;;;;;5093516;28;20203;-50
2023/04/26 04:15:30;;;;;;;6.27;4.10;;;9.60;37.60;;;;;;5093670;28;20168;-49
2023/04/26 04:17:56;;;;;;;5.70;3.80;;;9.60;37.80;;;;;;5093588;28;20168;-49
2023/04/26 04:20:21;;;;;;;7.33;3.80;;;9.60;37.80;;;;;;5093302;28;20425;-51
2023/04/26 04:22:47;;;;;;;8.23;4.37;;;9.60;37.90;;;;;;5093003;28;20168;-51
2023/04/26 04:25:13;;;;;;;11.00;4.23;;;9.60;37.90;;;;;;5093382;28;20193;-48
2023/04/26 04:27:41;;;;;;;12.10;4.23;;;9.60;38.10;;;;;;5093598;28;20172;-50
2023/04/26 04:30:08;;;;;;;5.07;3.65;;;9.60;37.90;;;;;;5092998;28;20199;-50
2023/04/26 04:32:38;;;;;;;5.85;3.42;;;9.60;38.00;;;;;;5093149;28;20198;-48
2023/04/26 04:35:04;;;;;;;8.27;3.97;;;9.50;38.10;;;;;;5093359;28;20172;-48
2023/04/26 04:37:33;;;;;;;4.47;3.65;;;9.50;38.00;;;;;;5093019;28;20646;-51
2023/04/26 04:39:59;;;;;;;8.57;3.88;;;9.50;37.90;;;;;;5092902;28;20605;-49
2023/04/26 04:42:27;;;;;;;9.85;3.22;;;9.60;37.90;;;;;;5093094;28;20179;-49
2023/04/26 04:44:53;;;;;;;8.52;3.78;;;9.60;37.90;;;;;;5093221;28;20183;-49
2023/04/26 04:47:19;;;;;;;8.13;3.20;;;9.70;37.80;;;;;;5093201;28;20183;-51
2023/04/26 04:49:44;;;;;;;7.67;3.93;;;9.70;37.90;;;;;;5092802;28;20256;-49
2023/04/26 04:52:10;;;;;;;6.93;3.40;;;9.70;37.70;;;;;;5092718;28;20200;-49
2023/04/26 04:54:36;;;;;;;17.42;4.70;;;9.80;37.60;;;;;;5093080;28;20198;-49
2023/04/26 04:57:02;;;;;;;6.93;3.67;;;9.80;37.60;;;;;;5092760;28;20639;-49
2023/04/26 04:59:28;;;;;;;6.35;3.05;;;9.80;37.50;;;;;;5092645;28;20195;-49
2023/04/26 05:01:54;;;;;;;8.20;3.47;;;9.80;37.40;;;;;;5092381;28;20183;-51
2023/04/26 05:04:20;;;;;;;4.57;3.17;;;9.90;37.40;;;;;;5092884;28;20256;-48
2023/04/26 05:06:46;;;;;;;4.83;4.10;;;9.90;37.40;;;;;;5092784;28;20863;-51
2023/04/26 05:09:12;;;;;;;4.37;3.63;;;10.00;37.30;;;;;;5092467;28;20432;-48
2023/04/26 05:11:38;;;;;;;5.73;2.90;;;10.00;37.10;;;;;;5092356;28;20215;-50
2023/04/26 05:14:04;;;;;;;5.57;4.07;;;10.10;37.20;;;;;;5092401;28;20168;-50
2023/04/26 05:16:30;;;;;;;7.90;3.80;;;10.20;37.70;;;;;;5092452;28;20905;-48
2023/04/26 05:18:56;;;;;;;10.60;3.60;;;10.20;36.80;;;;;;5091763;28;20195;-49
2023/04/26 05:21:22;;;;;;;7.70;4.07;;;10.30;36.90;;;;;;5092297;28;20179;-51
2023/04/26 05:23:48;;;;;;;4.38;3.20;;;10.40;36.70;;;;;;5092317;28;20204;-51
2023/04/26 05:26:16;;;;;;;7.63;3.80;;;10.40;36.50;;;;;;5092648;28;20168;-48
2023/04/26 05:28:42;;;;;;;7.47;4.05;;;10.40;36.40;;;;;;5092148;28;20185;-48
2023/04/26 05:31:09;;;;;;;7.55;3.67;;;10.50;36.40;;;;;;5092198;28;20192;-50
2023/04/26 05:33:34;;;;;;;7.95;5.53;;;10.50;36.30;;;;;;5091792;28;20199;-48
2023/04/26 05:36:01;;;;;;;8.20;3.67;;;10.60;36.20;;;;;;5092134;28;20179;-48
2023/04/26 05:38:27;;;;;;;12.07;4.18;;;10.70;36.30;;;;;;5092319;28;20405;-48
2023/04/26 05:40:53;;;;;;;5.90;3.50;;;10.80;36.30;;;;;;5092208;28;20195;-51
2023/04/26 05:43:18;;;;;;;6.30;4.00;;;10.90;36.20;;;;;;5091852;28;20901;-48
2023/04/26 05:45:55;;;;;;;15.53;4.50;;;11.00;35.80;;;;;;5092121;28;20413;-48
2023/04/26 05:48:23;;;;;;;10.38;5.70;;;11.00;35.80;;;;;;5091991;28;20180;-48
2023/04/26 05:50:49;;;;;;;17.88;3.70;;;10.90;35.50;;;;;;5092303;28;20204;-49
2023/04/26 05:53:15;;;;;;;7.35;4.18;;;10.90;35.90;;;;;;5091730;28;20562;-51
2023/04/26 05:55:42;;;;;;;10.77;4.05;;;11.00;35.80;;;;;;5091959;28;20179;-48
2023/04/26 05:58:08;;;;;;;5.32;3.35;;;11.00;36.00;;;;;;5092240;28;20172;-51
2023/04/26 06:00:35;;;;;;;4.57;3.08;;;11.00;35.80;;;;;;5092023;28;20196;-48
2023/04/26 06:03:01;;;;;;;8.95;4.57;;;10.90;36.30;;;;;;5091609;28;20183;-48
2023/04/26 06:05:27;;;;;;;9.97;3.17;;;11.10;36.40;;;;;;5092135;28;20176;-50
2023/04/26 06:07:53;;;;;;;8.30;4.10;;;11.10;36.10;;;;;;5091852;28;20492;-48
2023/04/26 06:10:19;;;;;;;4.10;3.43;;;11.30;36.10;;;;;;5092013;28;20195;-50
2023/04/26 06:12:45;;;;;;;7.00;2.85;;;11.30;36.00;;;;;;5091807;28;20476;-50
2023/04/26 06:15:11;;;;;;;3.80;2.90;;;11.50;36.00;;;;;;5091654;28;20643;-49
2023/04/26 06:17:37;;;;;;;9.27;4.97;;;11.60;35.90;;;;;;5091714;28;20182;-48
2023/04/26 06:20:06;;;;;;;8.30;3.73;;;11.80;35.40;;;;;;5091960;28;20279;-50
2023/04/26 06:22:32;;;;;;;8.70;4.30;;;11.90;34.80;;;;;;5091559;28;20259;-48
2023/04/26 06:24:58;;;;;;;6.77;4.30;;;12.00;34.90;;;;;;5091834;28;20302;-51
2023/04/26 06:27:23;;;;;;;4.53;3.50;;;12.00;34.50;;;;;;5091732;28;20667;-50
2023/04/26 06:29:50;;;;;;;5.50;3.47;;;12.00;34.90;;;;;;5091785;28;20215;-48
2023/04/26 06:32:15;;;;;;;7.95;3.50;;;12.20;34.70;;;;;;5095389;28;20211;-50
2023/04/26 06:34:42;;;;;;;6.03;4.23;;;12.30;33.80;;;;;;5095624;28;20168;-50
2023/04/26 06:37:08;;;;;;;8.48;3.30;;;12.10;33.90;;;;;;5095513;28;20168;-50
2023/04/26 06:39:34;;;;;;;14.63;4.40;;;12.00;34.00;;;;;;5095247;28;20568;-48
2023/04/26 06:42:00;;;;;;;6.93;4.20;;;12.00;33.30;;;;;;5095027;28;20262;-50
2023/04/26 06:44:26;;;;;;;15.77;4.38;;;11.90;33.80;;;;;;5095221;28;20192;-48
2023/04/26 06:46:55;;;;;;;15.20;4.67;;;11.90;34.20;;;;;;5095532;28;20230;-51
2023/04/26 06:49:21;;;;;;;9.02;3.72;;;12.10;34.70;;;;;;5095012;28;20203;-49
2023/04/26 06:51:47;;;;;;;9.35;3.50;;;12.30;34.10;;;;;;5094970;28;20211;-49
2023/04/26 06:54:13;;;;;;;6.17;3.43;;;12.30;32.90;;;;;;5095067;28;20527;-51
2023/04/26 06:56:39;;;;;;;6.67;3.60;;;12.20;32.40;;;;;;5095051;28;20405;-49
2023/04/26 06:59:06;;;;;;;10.63;3.60;;;12.20;33.00;;;;;;5094919;28;20437;-48
2023/04/26 07:01:34;;;;;;;8.10;2.78;;;12.10;32.70;;;;;;5094964;28;20567;-50
2023/04/26 07:04:02;;;;;;;3.70;2.20;;;12.10;32.80;;;;;;5095018;28;20214;-49
2023/04/26 07:06:28;;;;;;;7.47;3.63;;;12.20;33.10;;;;;;5095123;28;20176;-48
2023/04/26 07:08:54;;;;;;;6.55;3.50;;;12.40;33.70;;;;;;5094781;28;20200;-51
2023/04/26 07:11:20;;;;;;;11.23;3.63;;;12.50;32.40;;;;;;5094688;28;20180;-51
2023/04/26 07:13:46;;;;;;;11.10;3.17;;;12.70;31.70;;;;;;5094671;28;20402;-50
2023/04/26 07:16:12;;;;;;;7.70;3.13;;;12.80;32.50;;;;;;5094921;28;20520;-51
2023/04/26 07:18:39;;;;;;;18.03;4.27;;;12.90;32.00;;;;;;5094605;28;20405;-49
2023/04/26 07:21:05;;;;;;;6.65;3.40;;;12.80;31.40;;;;;;5094587;28;20496;-49
2023/04/26 07:23:31;;;;;;;8.10;2.67;;;12.80;31.90;;;;;;5094804;28;20266;-51
2023/04/26 07:25:56;;;;;;;7.57;3.58;;;12.80;30.70;;;;;;5094418;28;20410;-48
2023/04/26 07:28:22;;;;;;;7.63;2.70;;;12.70;31.30;;;;;;5094642;28;20191;-51
2023/04/26 07:30:48;;;;;;;11.37;3.10;;;12.80;31.20;;;;;;5094363;28;20218;-50
2023/04/26 07:33:14;;;;;;;11.50;4.87;;;12.80;30.40;;;;;;5094109;28;20196;-48
2023/04/26 07:35:39;;;;;;;8.37;2.63;;;12.90;29.80;;;;;;5093105;28;20176;-48
2023/04/26 07:38:06;;;;;;;6.03;3.33;;;12.90;30.10;;;;;;5094287;28;20213;-50
2023/04/26 07:40:31;;;;;;;10.70;3.60;;;13.00;30.60;;;;;;5093903;28;20195;-48
2023/04/26 07:42:57;;;;;;;7.73;3.30;;;13.10;30.90;;;;;;5093881;28;20266;-48
2023/04/26 07:45:23;;;;;;;7.53;3.20;;;13.20;30.40;;;;;;5094104;28;20187;-48
2023/04/26 07:47:49;;;;;;;4.60;2.53;;;13.30;30.20;;;;;;5094078;28;20180;-51
2023/04/26 07:50:15;;;;;;;4.50;2.60;;;13.30;28.50;;;;;;5093957;28;20192;-51
2023/04/26 07:52:42;;;;;;;9.10;3.70;;;13.30;29.60;;;;;;5093796;28;20337;-48
2023/04/26 07:55:08;;;;;;;3.65;2.53;;;13.40;29.60;;;;;;5092685;28;20174;-50
2023/04/26 07:57:34;;;;;;;5.90;2.83;;;13.60;29.90;;;;;;5094051;28;20203;-50
2023/04/26 07:59:59;;;;;;;5.30;2.27;;;13.80;29.20;;;;;;5093884;28;20687;-51
2023/04/26 08:02:25;;;;;;;5.70;2.80;;;14.00;28.40;;;;;;5093598;28;20180;-50
2023/04/26 08:04:51;;;;;;;12.60;3.47;;;14.20;28.70;;;;;;5093695;28;20212;-48
2023/04/26 08:07:18;;;;;;;7.50;2.40;;;14.60;27.90;;;;;;5093739;28;20172;-50
2023/04/26 08:09:44;;;;;;;5.93;3.08;;;14.80;27.70;;;;;;5093542;28;20195;-50
2023/04/26 08:12:11;;;;;;;8.73;3.20;;;14.70;25.60;;;;;;5093644;28;20298;-50
2023/04/26 08:14:37;;;;;;;5.72;2.70;;;14.60;27.30;;;;;;5093555;28;20891;-50
2023/04/26 08:17:05;;;;;;;5.45;2.35;;;14.60;26.70;;;;;;5093533;28;20184;-50
2023/04/26 08:19:32;;;;;;;10.20;3.63;;;14.70;27.60;;;;;;5092114;28;20191;-50
2023/04/26 08:21:58;;;;;;;13.63;3.55;;;14.80;27.20;;;;;;5093269;28;20267;-50
2023/04/26 08:24:24;;;;;;;10.80;3.38;;;14.90;27.00;;;;;;5093361;28;20164;-51
2023/04/26 08:26:50;;;;;;;9.40;3.20;;;14.90;26.90;;;;;;5093343;28;20206;-48
2023/04/26 08:29:16;;;;;;;5.50;3.80;;;14.90;27.00;;;;;;5093438;28;20191;-48
2023/04/26 08:31:41;;;;;;;7.47;2.93;;;14.80;26.60;;;;;;5092914;28;20261;-50
2023/04/26 08:34:12;;;;;;;7.90;3.47;;;14.70;26.70;;;;;;5093231;28;20405;-50
2023/04/26 08:36:41;;;;;;;12.77;3.47;;;14.40;25.40;;;;;;5093204;28;20221;-48
2023/04/26 08:39:08;;;;;;;8.70;2.80;;;14.00;25.40;;;;;;5092863;28;20191;-50
2023/04/26 08:41:44;;;;;;;4.47;2.63;;;13.70;27.40;;;;;;5093270;28;20175;-48
2023/04/26 08:44:10;;;;;;;7.78;3.72;;;13.60;26.40;;;;;;5092959;28;20160;-50
2023/04/26 08:46:46;;;;;;;6.95;2.70;;;13.50;28.30;;;;;;5092926;28;20205;-51
2023/04/26 08:49:20;;;;;;;6.80;2.83;;;13.90;28.00;;;;;;5092948;28;20698;-49
2023/04/26 08:51:46;;;;;;;6.47;2.35;;;14.00;26.60;;;;;;5092952;28;20191;-51
2023/04/26 08:54:14;;;;;;;10.13;2.90;;;14.00;26.80;;;;;;5091968;28;20251;-51
2023/04/26 08:56:43;;;;;;;10.40;3.58;;;14.00;25.30;;;;;;5092960;28;20202;-49
2023/04/26 08:59:09;;;;;;;8.25;3.03;;;13.90;26.20;;;;;;5092828;28;20203;-51
2023/04/26 09:01:38;;;;;;;9.52;3.47;;;13.80;25.70;;;;;;5092705;28;20168;-50
2023/04/26 09:04:05;;;;;;;4.93;2.95;;;13.70;25.30;;;;;;5092500;28;20199;-49
2023/04/26 09:06:33;;;;;;;9.20;2.67;;;13.60;25.70;;;;;;5092656;28;20659;-51
2023/04/26 09:09:06;;;;;;;10.73;3.05;;;13.70;26.40;;;;;;5092695;28;20199;-49
2023/04/26 09:11:50;;;;;;;6.47;2.50;;;13.90;25.10;;;;;;5092580;28;20259;-51
2023/04/26 09:14:16;;;;;;;6.85;2.75;;;13.90;25.50;;;;;;5092424;28;20668;-49
2023/04/26 09:16:42;;;;;;;8.57;2.67;;;14.00;26.40;;;;;;5092633;28;20260;-51
2023/04/26 09:19:07;;;;;;;7.30;2.53;;;14.10;26.10;;;;;;5092632;28;20806;-49
2023/04/26 09:21:39;;;;;;;7.10;4.23;;;14.10;24.80;;;;;;5092352;28;20172;-49
2023/04/26 09:24:06;;;;;;;5.00;2.40;;;14.00;25.30;;;;;;5092370;28;20182;-48
2023/04/26 09:26:32;;;;;;;9.10;2.83;;;14.00;25.40;;;;;;5092406;28;20176;-51
2023/04/26 09:29:15;;;;;;;6.40;5.10;;;13.90;25.10;;;;;;5092112;28;20199;-48
2023/04/26 09:31:44;;;;;;;8.80;3.50;;;13.80;26.00;;;;;;5091858;28;20219;-51
2023/04/26 09:34:14;;;;;;;7.30;3.28;;;14.00;23.90;;;;;;5092296;28;20175;-51
2023/04/26 09:36:56;;;;;;;4.00;2.90;;;14.10;26.10;;;;;;5092259;28;20187;-48
2023/04/26 09:39:36;;;;;;;3.92;2.53;;;14.30;23.40;;;;;;5092036;28;20590;-51
2023/04/26 09:42:11;;;;;;;5.13;3.10;;;14.70;26.90;;;;;;5091865;28;20182;-49
2023/04/26 09:44:37;;;;;;;4.53;2.38;;;15.10;25.40;;;;;;5092430;28;20166;-50
2023/04/26 09:47:08;;;;;;;7.15;3.17;;;15.10;21.70;;;;;;5092315;28;20178;-48
2023/04/26 09:49:43;;;;;;;5.80;3.20;;;14.80;22.70;;;;;;5091959;28;20196;-48
2023/04/26 09:52:09;;;;;;;7.47;3.58;;;14.60;23.20;;;;;;5091899;28;20198;-48
2023/04/26 09:54:43;;;;;;;10.25;2.40;;;14.70;23.20;;;;;;5092053;28;20171;-48
2023/04/26 09:57:10;;;;;;;11.77;3.15;;;14.90;25.40;;;;;;5092042;28;20175;-48
2023/04/26 09:59:55;;;;;;;4.97;2.65;;;15.20;24.80;;;;;;5092155;28;20209;-48
2023/04/26 10:02:25;;;;;;;6.57;2.63;;;15.30;20.70;;;;;;5091592;28;20175;-50
2023/04/26 10:04:55;;;;;;;5.43;2.58;;;15.10;22.00;;;;;;5093852;28;20554;-50
2023/04/26 10:07:23;;;;;;;5.60;3.05;;;15.20;22.80;;;;;;5095927;28;20171;-48
2023/04/26 10:09:49;;;;;;;9.20;2.42;;;15.20;21.50;;;;;;5096116;28;20235;-50
2023/04/26 10:12:17;;;;;;;4.32;2.70;;;15.20;22.10;;;;;;5095673;28;20217;-51
2023/04/26 10:14:45;;;;;;;6.05;2.75;;;15.10;22.80;;;;;;5095754;28;20251;-49
2023/04/26 10:17:11;;;;;;;4.30;1.90;;;15.10;22.30;;;;;;5096191;28;20171;-49
2023/04/26 10:19:40;;;;;;;4.82;2.40;;;14.90;21.30;;;;;;5095726;28;20223;-48
2023/04/26 10:22:34;;;;;;;6.05;3.75;;;14.70;21.60;;;;;;5095460;28;20164;-48
2023/04/26 10:25:00;;;;;;;4.50;1.95;;;14.40;22.20;;;;;;5095488;28;20237;-51
2023/04/26 10:27:44;;;;;;;6.43;2.17;;;14.20;23.10;;;;;;5095885;28;20172;-48
2023/04/26 10:30:11;;;;;;;8.82;2.60;;;14.00;23.70;;;;;;5095286;28;20752;-51
2023/04/26 10:32:52;;;;;;;3.95;2.60;;;13.90;23.10;;;;;;5095353;28;20208;-49
2023/04/26 10:35:18;;;;;;;7.70;2.75;;;14.00;24.60;;;;;;5095459;28;20213;-49
2023/04/26 10:38:02;;;;;;;8.27;2.50;;;14.30;23.70;;;;;;5095638;28;20176;-49
2023/04/26 10:40:38;;;;;;;8.32;2.83;;;14.80;24.00;;;;;;5095545;28;20191;-49
2023/04/26 10:43:19;;;;;;;6.45;2.75;;;15.00;23.70;;;;;;5095198;28;20163;-49
2023/04/26 10:45:46;;;;;;;5.50;2.80;;;15.20;22.60;;;;;;5095325;28;20152;-50
2023/04/26 10:48:27;;;;;;;5.20;3.00;;;15.20;23.30;;;;;;5095151;28;20191;-49
2023/04/26 10:51:01;;;;;;;11.05;2.80;;;15.20;23.40;;;;;;5095095;28;20227;-52
2023/04/26 10:53:28;;;;;;;5.80;2.38;;;15.30;23.30;;;;;;5094817;28;20289;-49
2023/04/26 10:55:53;;;;;;;6.25;3.30;;;15.40;22.50;;;;;;5095318;28;20199;-51
2023/04/26 10:58:28;;;;;;;6.73;3.37;;;15.50;22.90;;;;;;5095319;28;20582;-49
2023/04/26 11:01:04;;;;;;;5.38;2.35;;;15.60;22.40;;;;;;5094879;28;20236;-48
2023/04/26 11:03:30;;;;;;;3.15;2.83;;;15.50;22.00;;;;;;5094970;28;20726;-51
2023/04/26 11:05:56;;;;;;;5.13;2.55;;;15.40;21.00;;;;;;5094917;28;20187;-48
2023/04/26 11:08:26;;;;;;;10.70;3.90;;;15.20;21.70;;;;;;5094835;28;20171;-48
2023/04/26 11:10:57;;;;;;;6.47;3.10;;;15.10;22.70;;;;;;5094959;28;20425;-51
2023/04/26 11:13:23;;;;;;;8.20;3.50;;;14.90;22.70;;;;;;5094390;28;20203;-49
2023/04/26 11:15:53;;;;;;;7.00;3.13;;;14.70;23.00;;;;;;5093875;28;20565;-48
2023/04/26 11:18:20;;;;;;;4.55;2.83;;;14.80;24.40;;;;;;5095035;28;20183;-51
2023/04/26 11:20:46;;;;;;;3.97;3.67;;;14.80;23.60;;;;;;5094589;28;20275;-49
2023/04/26 11:23:12;;;;;;;8.85;3.35;;;14.80;23.40;;;;;;5094393;28;20168;-51
2023/04/26 11:25:41;;;;;;;5.90;2.87;;;14.80;23.00;;;;;;5094478;28;20175;-49
2023/04/26 11:28:07;;;;;;;7.25;3.58;;;15.00;24.40;;;;;;5094466;28;20402;-51
2023/04/26 11:30:32;;;;;;;4.30;3.17;;;15.20;22.40;;;;;;5094275;28;20223;-50
2023/04/26 11:33:05;;;;;;;6.87;3.03;;;15.40;24.20;;;;;;5094084;28;20306;-50
2023/04/26 11:35:39;;;;;;;5.93;3.00;;;15.60;24.20;;;;;;5094434;28;20398;-51
2023/04/26 11:38:05;;;;;;;6.63;2.72;;;15.70;22.00;;;;;;5094264;28;20644;-49
2023/04/26 11:40:31;;;;;;;9.30;3.23;;;15.60;21.10;;;;;;5094578;28;20274;-49
2023/04/26 11:43:03;;;;;;;3.40;2.30;;;15.50;21.40;;;;;;5094082;28;20202;-48
2023/04/26 11:45:32;;;;;;;4.43;2.10;;;15.50;22.80;;;;;;5094744;28;20184;-51
2023/04/26 11:47:58;;;;;;;7.70;2.97;;;15.50;22.40;;;;;;5094171;28;20176;-51
2023/04/26 11:50:25;;;;;;;6.80;3.00;;;15.40;22.00;;;;;;5094026;28;20196;-49
2023/04/26 11:52:55;;;;;;;6.50;3.42;;;15.30;21.40;;;;;;5093879;28;20290;-51
2023/04/26 11:55:28;;;;;;;11.23;2.67;;;15.20;22.10;;;;;;5094191;28;20223;-49
2023/04/26 11:57:54;;;;;;;4.72;3.10;;;14.90;22.30;;;;;;5093831;28;20167;-49
2023/04/26 12:00:20;;;;;;;7.17;2.70;;;14.80;23.70;;;;;;5094120;28;20199;-51
2023/04/26 12:02:50;;;;;;;9.70;3.63;;;14.70;22.60;;;;;;5093523;28;20496;-49
2023/04/26 12:05:29;;;;;;;6.47;3.67;;;14.60;22.80;;;;;;5093643;28;20652;-49
2023/04/26 12:07:56;;;;;;;5.80;2.70;;;14.60;24.00;;;;;;5093653;28;20195;-49
2023/04/26 12:10:27;;;;;;;5.93;2.58;;;14.70;24.00;;;;;;5093495;28;20202;-49
2023/04/26 12:12:57;;;;;;;3.03;2.72;;;14.90;25.00;;;;;;5093260;28;20218;-51
2023/04/26 12:15:25;;;;;;;5.85;3.13;;;15.20;24.10;;;;;;5093494;28;20233;-51
2023/04/26 12:18:08;;;;;;;6.63;4.00;;;15.50;22.40;;;;;;5093402;28;20212;-51
2023/04/26 12:20:36;;;;;;;9.13;4.10;;;15.70;23.10;;;;;;5093322;28;20196;-49
2023/04/26 12:23:36;;;;;;;5.78;2.75;;;15.80;23.20;;;;;;5093446;28;20237;-49
2023/04/26 12:26:02;;;;;;;5.35;3.33;;;15.90;21.50;;;;;;5093274;28;20226;-49
2023/04/26 12:28:28;;;;;;;3.70;3.13;;;15.90;21.50;;;;;;5093331;28;20606;-49
2023/04/26 12:30:54;;;;;;;5.80;3.40;;;15.80;21.10;;;;;;5093230;28;20216;-51
2023/04/26 12:33:21;;;;;;;5.97;3.58;;;15.70;21.00;;;;;;5092880;28;20705;-50
2023/04/26 12:35:49;;;;;;;9.48;3.50;;;15.60;21.70;;;;;;5093260;28;20176;-49
2023/04/26 12:38:14;;;;;;;6.80;4.00;;;15.30;21.40;;;;;;5093267;28;20176;-51
2023/04/26 12:40:41;;;;;;;6.30;3.20;;;15.50;23.40;;;;;;5093195;28;20559;-50
2023/04/26 12:43:07;;;;;;;4.38;2.50;;;15.60;21.70;;;;;;5092823;28;20176;-48
2023/04/26 12:45:33;;;;;;;6.17;4.13;;;16.00;23.20;;;;;;5093056;28;20218;-51
2023/04/26 12:47:59;;;;;;;4.15;2.92;;;16.20;22.20;;;;;;5093100;28;20410;-49
2023/04/26 12:50:25;;;;;;;6.83;3.73;;;16.50;23.30;;;;;;5092852;28;20206;-49